sensor_id;sensor_type;location;lat;lon;timestamp;temperature;humidity
25128;DHT22;13107;51.304;6.866;2023-07-30T00:03:36;15.00;99.90
25128;DHT22;13107;51.304;6.866;2023-07-30T00:07:38;14.90;99.90
25128;DHT22;13107;51.304;6.866;2023-07-30T00:11:40;14.80;99.90
25128;DHT22;13107;51.304;6.866;2023-07-30T00:15:42;14.80;99.90
25128;DHT22;13107;51.304;6.866;2023-07-30T00:19:43;14.70;99.90
25128;DHT22;13107;51.304;6.866;2023-07-30T00:23:45;14.70;99.90
25128;DHT22;13107;51.304;6.866;2023-07-30T00:27:47;14.60;99.90
25128;DHT22;13107;51.304;6.866;2023-07-30T00:31:49;14.60;99.90
25128;DHT22;13107;51.304;6.866;2023-07-30T00:35:54;14.50;99.90
25128;DHT22;13107;51.304;6.866;2023-07-30T00:39:55;14.50;99.90
25128;DHT22;13107;51.304;6.866;2023-07-30T00:43:57;14.50;99.90
25128;DHT22;13107;51.304;6.866;2023-07-30T00:47:59;14.50;99.90
25128;DHT22;13107;51.304;6.866;2023-07-30T00:52:01;14.50;99.90
25128;DHT22;13107;51.304;6.866;2023-07-30T00:56:04;14.50;99.90
25128;DHT22;13107;51.304;6.866;2023-07-30T01:00:06;14.40;99.90
25128;DHT22;13107;51.304;6.866;2023-07-30T01:04:10;14.30;99.90
25128;DHT22;13107;51.304;6.866;2023-07-30T01:08:12;14.20;99.90
25128;DHT22;13107;51.304;6.866;2023-07-30T01:12:16;14.10;99.90
25128;DHT22;13107;51.304;6.866;2023-07-30T01:16:18;14.10;99.90
25128;DHT22;13107;51.304;6.866;2023-07-30T01:20:19;14.10;99.90
25128;DHT22;13107;51.304;6.866;2023-07-30T01:24:22;14.00;99.90
25128;DHT22;13107;51.304;6.866;2023-07-30T01:28:24;14.00;99.90
25128;DHT22;13107;51.304;6.866;2023-07-30T01:32:27;14.00;99.90
25128;DHT22;13107;51.304;6.866;2023-07-30T01:36:31;14.10;99.90
25128;DHT22;13107;51.304;6.866;2023-07-30T01:40:33;14.20;99.90
25128;DHT22;13107;51.304;6.866;2023-07-30T01:44:35;14.30;99.90
25128;DHT22;13107;51.304;6.866;2023-07-30T01:48:37;14.50;99.90
25128;DHT22;13107;51.304;6.866;2023-07-30T01:52:38;14.50;99.90
25128;DHT22;13107;51.304;6.866;2023-07-30T01:56:40;14.60;99.90
25128;DHT22;13107;51.304;6.866;2023-07-30T02:00:42;14.70;99.90
25128;DHT22;13107;51.304;6.866;2023-07-30T02:04:44;14.70;99.90
25128;DHT22;13107;51.304;6.866;2023-07-30T02:08:46;14.70;99.90
25128;DHT22;13107;51.304;6.866;2023-07-30T02:12:47;14.60;99.90
25128;DHT22;13107;51.304;6.866;2023-07-30T02:16:49;14.60;99.90
25128;DHT22;13107;51.304;6.866;2023-07-30T02:20:51;14.50;99.90
25128;DHT22;13107;51.304;6.866;2023-07-30T02:24:52;14.50;99.90
25128;DHT22;13107;51.304;6.866;2023-07-30T02:28:54;14.40;99.90
25128;DHT22;13107;51.304;6.866;2023-07-30T02:32:56;14.30;99.90
25128;DHT22;13107;51.304;6.866;2023-07-30T02:36:58;14.40;99.90
25128;DHT22;13107;51.304;6.866;2023-07-30T02:41:00;14.40;99.90
25128;DHT22;13107;51.304;6.866;2023-07-30T02:45:01;14.30;99.90
25128;DHT22;13107;51.304;6.866;2023-07-30T02:49:03;14.30;99.90
25128;DHT22;13107;51.304;6.866;2023-07-30T02:53:05;14.30;99.90
25128;DHT22;13107;51.304;6.866;2023-07-30T02:57:06;14.20;99.90
25128;DHT22;13107;51.304;6.866;2023-07-30T03:01:09;14.20;99.90
25128;DHT22;13107;51.304;6.866;2023-07-30T03:05:11;14.10;99.90
25128;DHT22;13107;51.304;6.866;2023-07-30T03:09:13;14.00;99.90
25128;DHT22;13107;51.304;6.866;2023-07-30T03:13:14;14.00;99.90
25128;DHT22;13107;51.304;6.866;2023-07-30T03:17:16;14.00;99.90
25128;DHT22;13107;51.304;6.866;2023-07-30T03:21:18;13.90;99.90
25128;DHT22;13107;51.304;6.866;2023-07-30T03:25:19;13.80;99.90
25128;DHT22;13107;51.304;6.866;2023-07-30T03:29:21;13.70;99.90
25128;DHT22;13107;51.304;6.866;2023-07-30T03:33:24;13.70;99.90
25128;DHT22;13107;51.304;6.866;2023-07-30T03:37:26;13.60;99.90
25128;DHT22;13107;51.304;6.866;2023-07-30T03:41:28;13.70;99.90
25128;DHT22;13107;51.304;6.866;2023-07-30T03:45:29;13.80;99.90
25128;DHT22;13107;51.304;6.866;2023-07-30T03:49:31;13.80;99.90
25128;DHT22;13107;51.304;6.866;2023-07-30T03:53:33;13.90;99.90
25128;DHT22;13107;51.304;6.866;2023-07-30T03:57:35;13.80;99.90
25128;DHT22;13107;51.304;6.866;2023-07-30T04:01:36;13.80;99.90
25128;DHT22;13107;51.304;6.866;2023-07-30T04:05:38;13.80;99.90
25128;DHT22;13107;51.304;6.866;2023-07-30T04:09:40;13.80;99.90
25128;DHT22;13107;51.304;6.866;2023-07-30T04:13:42;13.90;99.90
25128;DHT22;13107;51.304;6.866;2023-07-30T04:17:44;13.90;99.90
25128;DHT22;13107;51.304;6.866;2023-07-30T04:21:46;14.00;99.90
25128;DHT22;13107;51.304;6.866;2023-07-30T04:25:51;14.10;99.90
25128;DHT22;13107;51.304;6.866;2023-07-30T04:29:53;14.20;99.90
25128;DHT22;13107;51.304;6.866;2023-07-30T04:33:54;14.30;99.90
25128;DHT22;13107;51.304;6.866;2023-07-30T04:37:56;14.40;99.90
25128;DHT22;13107;51.304;6.866;2023-07-30T04:41:58;14.40;99.90
25128;DHT22;13107;51.304;6.866;2023-07-30T04:45:59;14.50;99.90
25128;DHT22;13107;51.304;6.866;2023-07-30T04:50:01;14.60;99.90
25128;DHT22;13107;51.304;6.866;2023-07-30T04:54:03;14.70;99.90
25128;DHT22;13107;51.304;6.866;2023-07-30T04:58:05;14.70;99.90
25128;DHT22;13107;51.304;6.866;2023-07-30T05:02:07;14.70;99.90
25128;DHT22;13107;51.304;6.866;2023-07-30T05:06:09;14.70;99.90
25128;DHT22;13107;51.304;6.866;2023-07-30T05:10:10;14.70;99.90
25128;DHT22;13107;51.304;6.866;2023-07-30T05:14:12;14.80;99.90
25128;DHT22;13107;51.304;6.866;2023-07-30T05:18:14;14.80;99.90
25128;DHT22;13107;51.304;6.866;2023-07-30T05:22:15;14.80;99.90
25128;DHT22;13107;51.304;6.866;2023-07-30T05:26:17;14.80;99.90
25128;DHT22;13107;51.304;6.866;2023-07-30T05:30:19;14.80;99.90
25128;DHT22;13107;51.304;6.866;2023-07-30T05:34:21;14.90;99.90
25128;DHT22;13107;51.304;6.866;2023-07-30T05:38:22;14.80;99.90
25128;DHT22;13107;51.304;6.866;2023-07-30T05:42:24;14.90;99.90
25128;DHT22;13107;51.304;6.866;2023-07-30T05:46:26;14.80;99.90
25128;DHT22;13107;51.304;6.866;2023-07-30T05:50:27;14.70;99.90
25128;DHT22;13107;51.304;6.866;2023-07-30T05:54:29;14.70;99.90
25128;DHT22;13107;51.304;6.866;2023-07-30T05:58:31;14.70;99.90
25128;DHT22;13107;51.304;6.866;2023-07-30T06:02:33;14.70;99.90
25128;DHT22;13107;51.304;6.866;2023-07-30T06:06:34;14.80;99.90
25128;DHT22;13107;51.304;6.866;2023-07-30T06:10:39;14.90;99.90
25128;DHT22;13107;51.304;6.866;2023-07-30T06:14:42;14.80;99.90
25128;DHT22;13107;51.304;6.866;2023-07-30T06:18:44;14.90;99.90
25128;DHT22;13107;51.304;6.866;2023-07-30T06:22:45;14.90;99.90
25128;DHT22;13107;51.304;6.866;2023-07-30T06:26:47;14.90;99.90
25128;DHT22;13107;51.304;6.866;2023-07-30T06:30:49;15.00;99.90
25128;DHT22;13107;51.304;6.866;2023-07-30T06:34:50;15.10;99.90
25128;DHT22;13107;51.304;6.866;2023-07-30T06:38:52;15.10;99.90
25128;DHT22;13107;51.304;6.866;2023-07-30T06:42:54;15.10;99.90
25128;DHT22;13107;51.304;6.866;2023-07-30T06:46:55;15.20;99.90
25128;DHT22;13107;51.304;6.866;2023-07-30T06:50:57;15.30;99.90
25128;DHT22;13107;51.304;6.866;2023-07-30T06:54:59;15.30;99.90
25128;DHT22;13107;51.304;6.866;2023-07-30T06:59:02;15.40;99.90
25128;DHT22;13107;51.304;6.866;2023-07-30T07:03:04;15.50;99.90
25128;DHT22;13107;51.304;6.866;2023-07-30T07:07:06;15.50;99.90
25128;DHT22;13107;51.304;6.866;2023-07-30T07:11:08;15.60;99.90
25128;DHT22;13107;51.304;6.866;2023-07-30T07:15:09;15.70;99.90
25128;DHT22;13107;51.304;6.866;2023-07-30T07:19:11;15.70;99.90
25128;DHT22;13107;51.304;6.866;2023-07-30T07:23:13;15.70;99.90
25128;DHT22;13107;51.304;6.866;2023-07-30T07:27:15;15.70;99.90
25128;DHT22;13107;51.304;6.866;2023-07-30T07:31:16;15.80;99.90
25128;DHT22;13107;51.304;6.866;2023-07-30T07:35:19;15.80;99.90
25128;DHT22;13107;51.304;6.866;2023-07-30T07:39:24;15.90;99.90
25128;DHT22;13107;51.304;6.866;2023-07-30T07:43:26;15.90;99.90
25128;DHT22;13107;51.304;6.866;2023-07-30T07:47:28;16.10;99.90
25128;DHT22;13107;51.304;6.866;2023-07-30T07:51:29;16.30;99.90
25128;DHT22;13107;51.304;6.866;2023-07-30T07:55:31;16.30;99.90
25128;DHT22;13107;51.304;6.866;2023-07-30T07:59:34;16.40;99.90
25128;DHT22;13107;51.304;6.866;2023-07-30T08:03:35;16.40;99.90
25128;DHT22;13107;51.304;6.866;2023-07-30T08:07:37;16.30;99.90
25128;DHT22;13107;51.304;6.866;2023-07-30T08:11:39;16.30;99.90
25128;DHT22;13107;51.304;6.866;2023-07-30T08:15:41;16.40;99.90
25128;DHT22;13107;51.304;6.866;2023-07-30T08:19:42;16.50;99.90
25128;DHT22;13107;51.304;6.866;2023-07-30T08:23:46;16.50;99.90
25128;DHT22;13107;51.304;6.866;2023-07-30T08:27:48;16.50;99.90
25128;DHT22;13107;51.304;6.866;2023-07-30T08:31:49;16.50;99.90
25128;DHT22;13107;51.304;6.866;2023-07-30T08:35:55;16.60;99.90
25128;DHT22;13107;51.304;6.866;2023-07-30T08:39:57;16.80;99.90
25128;DHT22;13107;51.304;6.866;2023-07-30T08:43:59;17.00;99.90
25128;DHT22;13107;51.304;6.866;2023-07-30T08:48:00;17.20;99.90
25128;DHT22;13107;51.304;6.866;2023-07-30T08:52:03;17.40;99.90
25128;DHT22;13107;51.304;6.866;2023-07-30T08:56:05;17.30;99.90
25128;DHT22;13107;51.304;6.866;2023-07-30T09:00:08;17.50;99.90
25128;DHT22;13107;51.304;6.866;2023-07-30T09:04:10;17.60;99.90
25128;DHT22;13107;51.304;6.866;2023-07-30T09:08:13;17.60;99.90
25128;DHT22;13107;51.304;6.866;2023-07-30T09:12:15;17.60;99.90
25128;DHT22;13107;51.304;6.866;2023-07-30T09:16:17;18.00;99.90
25128;DHT22;13107;51.304;6.866;2023-07-30T09:20:19;18.30;99.90
25128;DHT22;13107;51.304;6.866;2023-07-30T09:24:22;19.00;99.90
25128;DHT22;13107;51.304;6.866;2023-07-30T09:28:30;19.10;99.90
25128;DHT22;13107;51.304;6.866;2023-07-30T09:32:34;19.50;99.90
25128;DHT22;13107;51.304;6.866;2023-07-30T09:36:36;19.70;99.90
25128;DHT22;13107;51.304;6.866;2023-07-30T09:40:38;20.40;99.90
25128;DHT22;13107;51.304;6.866;2023-07-30T09:44:40;21.10;99.90
25128;DHT22;13107;51.304;6.866;2023-07-30T09:48:42;21.20;99.90
25128;DHT22;13107;51.304;6.866;2023-07-30T09:52:44;21.60;99.90
25128;DHT22;13107;51.304;6.866;2023-07-30T09:56:46;21.70;99.90
25128;DHT22;13107;51.304;6.866;2023-07-30T10:00:48;22.10;99.90
25128;DHT22;13107;51.304;6.866;2023-07-30T10:04:53;22.20;99.90
25128;DHT22;13107;51.304;6.866;2023-07-30T10:08:59;21.70;99.90
25128;DHT22;13107;51.304;6.866;2023-07-30T10:13:08;21.30;99.90
25128;DHT22;13107;51.304;6.866;2023-07-30T10:17:11;21.10;99.90
25128;DHT22;13107;51.304;6.866;2023-07-30T10:21:22;21.20;99.90
25128;DHT22;13107;51.304;6.866;2023-07-30T10:25:29;20.90;99.90
25128;DHT22;13107;51.304;6.866;2023-07-30T10:29:34;21.00;99.90
25128;DHT22;13107;51.304;6.866;2023-07-30T10:37:45;20.30;99.90
25128;DHT22;13107;51.304;6.866;2023-07-30T10:41:50;20.10;99.90
25128;DHT22;13107;51.304;6.866;2023-07-30T10:45:52;20.40;99.90
25128;DHT22;13107;51.304;6.866;2023-07-30T10:50:01;20.70;99.90
25128;DHT22;13107;51.304;6.866;2023-07-30T10:54:06;20.70;99.90
25128;DHT22;13107;51.304;6.866;2023-07-30T10:58:08;20.90;99.90
25128;DHT22;13107;51.304;6.866;2023-07-30T11:02:09;21.30;99.90
25128;DHT22;13107;51.304;6.866;2023-07-30T11:06:13;20.80;99.90
25128;DHT22;13107;51.304;6.866;2023-07-30T11:10:15;20.40;99.90
25128;DHT22;13107;51.304;6.866;2023-07-30T11:14:24;20.30;99.90
25128;DHT22;13107;51.304;6.866;2023-07-30T11:18:31;20.20;99.90
25128;DHT22;13107;51.304;6.866;2023-07-30T11:22:35;20.40;99.90
25128;DHT22;13107;51.304;6.866;2023-07-30T11:26:37;20.90;99.90
25128;DHT22;13107;51.304;6.866;2023-07-30T11:30:38;20.90;99.90
25128;DHT22;13107;51.304;6.866;2023-07-30T11:34:41;20.50;99.90
25128;DHT22;13107;51.304;6.866;2023-07-30T11:38:43;20.50;99.90
25128;DHT22;13107;51.304;6.866;2023-07-30T11:42:45;20.70;99.90
25128;DHT22;13107;51.304;6.866;2023-07-30T11:46:54;20.70;99.90
25128;DHT22;13107;51.304;6.866;2023-07-30T11:50:56;20.80;99.90
25128;DHT22;13107;51.304;6.866;2023-07-30T11:55:04;21.10;99.90
25128;DHT22;13107;51.304;6.866;2023-07-30T11:59:07;21.00;99.90
25128;DHT22;13107;51.304;6.866;2023-07-30T12:03:11;21.00;99.90
25128;DHT22;13107;51.304;6.866;2023-07-30T12:07:22;20.70;99.90
25128;DHT22;13107;51.304;6.866;2023-07-30T12:11:25;20.50;99.90
25128;DHT22;13107;51.304;6.866;2023-07-30T12:15:29;20.50;99.90
25128;DHT22;13107;51.304;6.866;2023-07-30T12:19:31;20.50;99.90
25128;DHT22;13107;51.304;6.866;2023-07-30T12:23:33;20.90;99.90
25128;DHT22;13107;51.304;6.866;2023-07-30T12:27:35;20.80;99.90
25128;DHT22;13107;51.304;6.866;2023-07-30T12:31:37;20.80;99.90
25128;DHT22;13107;51.304;6.866;2023-07-30T12:35:39;20.70;99.90
25128;DHT22;13107;51.304;6.866;2023-07-30T12:39:41;20.60;99.90
25128;DHT22;13107;51.304;6.866;2023-07-30T12:43:42;20.50;99.90
25128;DHT22;13107;51.304;6.866;2023-07-30T12:47:44;20.50;99.90
25128;DHT22;13107;51.304;6.866;2023-07-30T12:51:47;20.50;99.90
25128;DHT22;13107;51.304;6.866;2023-07-30T12:55:49;21.10;99.90
25128;DHT22;13107;51.304;6.866;2023-07-30T12:59:52;21.40;99.90
25128;DHT22;13107;51.304;6.866;2023-07-30T13:03:54;21.40;99.90
25128;DHT22;13107;51.304;6.866;2023-07-30T13:07:56;21.80;99.90
25128;DHT22;13107;51.304;6.866;2023-07-30T13:11:58;21.80;99.90
25128;DHT22;13107;51.304;6.866;2023-07-30T13:16:00;21.40;99.90
25128;DHT22;13107;51.304;6.866;2023-07-30T13:20:03;21.20;99.90
25128;DHT22;13107;51.304;6.866;2023-07-30T13:24:05;21.20;99.90
25128;DHT22;13107;51.304;6.866;2023-07-30T13:28:07;21.50;99.90
25128;DHT22;13107;51.304;6.866;2023-07-30T13:32:09;21.70;99.90
25128;DHT22;13107;51.304;6.866;2023-07-30T13:36:11;21.80;99.90
25128;DHT22;13107;51.304;6.866;2023-07-30T13:40:13;21.90;99.90
25128;DHT22;13107;51.304;6.866;2023-07-30T13:44:15;22.10;99.90
25128;DHT22;13107;51.304;6.866;2023-07-30T13:48:17;22.20;99.90
25128;DHT22;13107;51.304;6.866;2023-07-30T13:52:18;22.30;99.90
25128;DHT22;13107;51.304;6.866;2023-07-30T13:56:20;22.20;99.90
25128;DHT22;13107;51.304;6.866;2023-07-30T14:00:22;21.90;99.90
25128;DHT22;13107;51.304;6.866;2023-07-30T14:04:24;21.20;99.90
25128;DHT22;13107;51.304;6.866;2023-07-30T14:08:25;21.00;99.90
25128;DHT22;13107;51.304;6.866;2023-07-30T14:12:27;20.90;99.90
25128;DHT22;13107;51.304;6.866;2023-07-30T14:16:29;21.00;99.90
25128;DHT22;13107;51.304;6.866;2023-07-30T14:20:30;20.90;99.90
25128;DHT22;13107;51.304;6.866;2023-07-30T14:24:32;20.90;99.90
25128;DHT22;13107;51.304;6.866;2023-07-30T14:28:34;20.90;99.90
25128;DHT22;13107;51.304;6.866;2023-07-30T14:32:36;21.40;99.90
25128;DHT22;13107;51.304;6.866;2023-07-30T14:36:37;21.70;99.90
25128;DHT22;13107;51.304;6.866;2023-07-30T14:40:39;21.60;99.90
25128;DHT22;13107;51.304;6.866;2023-07-30T14:44:41;21.50;99.90
25128;DHT22;13107;51.304;6.866;2023-07-30T14:48:43;21.50;99.90
25128;DHT22;13107;51.304;6.866;2023-07-30T14:52:45;21.30;99.90
25128;DHT22;13107;51.304;6.866;2023-07-30T14:56:47;21.30;99.90
25128;DHT22;13107;51.304;6.866;2023-07-30T15:00:48;21.20;99.90
25128;DHT22;13107;51.304;6.866;2023-07-30T15:04:50;21.00;99.90
25128;DHT22;13107;51.304;6.866;2023-07-30T15:08:52;21.00;99.90
25128;DHT22;13107;51.304;6.866;2023-07-30T15:12:54;21.30;99.90
25128;DHT22;13107;51.304;6.866;2023-07-30T15:16:56;22.00;99.90
25128;DHT22;13107;51.304;6.866;2023-07-30T15:20:58;22.30;99.90
25128;DHT22;13107;51.304;6.866;2023-07-30T15:25:00;22.00;99.90
25128;DHT22;13107;51.304;6.866;2023-07-30T15:29:01;21.90;99.90
25128;DHT22;13107;51.304;6.866;2023-07-30T15:33:03;21.80;99.90
25128;DHT22;13107;51.304;6.866;2023-07-30T15:37:05;21.70;99.90
25128;DHT22;13107;51.304;6.866;2023-07-30T15:41:07;21.40;99.90
25128;DHT22;13107;51.304;6.866;2023-07-30T15:45:09;21.30;99.90
25128;DHT22;13107;51.304;6.866;2023-07-30T15:49:10;21.60;99.90
25128;DHT22;13107;51.304;6.866;2023-07-30T15:53:12;22.00;99.90
25128;DHT22;13107;51.304;6.866;2023-07-30T15:57:14;22.10;99.90
25128;DHT22;13107;51.304;6.866;2023-07-30T16:01:16;22.10;99.90
25128;DHT22;13107;51.304;6.866;2023-07-30T16:05:18;21.90;99.90
25128;DHT22;13107;51.304;6.866;2023-07-30T16:09:20;21.90;99.90
25128;DHT22;13107;51.304;6.866;2023-07-30T16:13:22;22.10;99.90
25128;DHT22;13107;51.304;6.866;2023-07-30T16:17:24;21.90;99.90
25128;DHT22;13107;51.304;6.866;2023-07-30T16:21:26;21.90;99.90
25128;DHT22;13107;51.304;6.866;2023-07-30T16:25:27;21.80;99.90
25128;DHT22;13107;51.304;6.866;2023-07-30T16:29:29;21.50;99.90
25128;DHT22;13107;51.304;6.866;2023-07-30T16:33:31;21.30;99.90
25128;DHT22;13107;51.304;6.866;2023-07-30T16:37:33;21.30;99.90
25128;DHT22;13107;51.304;6.866;2023-07-30T16:41:35;21.40;99.90
25128;DHT22;13107;51.304;6.866;2023-07-30T16:45:37;21.30;99.90
25128;DHT22;13107;51.304;6.866;2023-07-30T16:49:39;21.30;99.90
25128;DHT22;13107;51.304;6.866;2023-07-30T16:53:40;21.20;99.90
25128;DHT22;13107;51.304;6.866;2023-07-30T16:57:42;21.10;99.90
25128;DHT22;13107;51.304;6.866;2023-07-30T17:01:44;21.10;99.90
25128;DHT22;13107;51.304;6.866;2023-07-30T17:05:45;21.00;99.90
25128;DHT22;13107;51.304;6.866;2023-07-30T17:09:47;21.00;99.90
25128;DHT22;13107;51.304;6.866;2023-07-30T17:13:50;20.90;99.90
25128;DHT22;13107;51.304;6.866;2023-07-30T17:17:52;20.90;99.90
25128;DHT22;13107;51.304;6.866;2023-07-30T17:21:54;20.90;99.90
25128;DHT22;13107;51.304;6.866;2023-07-30T17:25:57;20.90;99.90
25128;DHT22;13107;51.304;6.866;2023-07-30T17:30:00;20.90;99.90
25128;DHT22;13107;51.304;6.866;2023-07-30T17:34:02;20.70;99.90
25128;DHT22;13107;51.304;6.866;2023-07-30T17:38:04;20.70;99.90
25128;DHT22;13107;51.304;6.866;2023-07-30T17:42:05;20.60;99.90
25128;DHT22;13107;51.304;6.866;2023-07-30T17:46:09;20.60;99.90
25128;DHT22;13107;51.304;6.866;2023-07-30T17:50:11;20.70;99.90
25128;DHT22;13107;51.304;6.866;2023-07-30T17:54:12;20.40;99.90
25128;DHT22;13107;51.304;6.866;2023-07-30T17:58:14;20.20;99.90
25128;DHT22;13107;51.304;6.866;2023-07-30T18:02:16;20.00;99.90
25128;DHT22;13107;51.304;6.866;2023-07-30T18:06:19;19.60;99.90
25128;DHT22;13107;51.304;6.866;2023-07-30T18:10:21;19.20;99.90
25128;DHT22;13107;51.304;6.866;2023-07-30T18:14:22;18.60;99.90
25128;DHT22;13107;51.304;6.866;2023-07-30T18:18:24;18.20;99.90
25128;DHT22;13107;51.304;6.866;2023-07-30T18:22:26;17.60;99.90
25128;DHT22;13107;51.304;6.866;2023-07-30T18:26:28;17.30;99.90
25128;DHT22;13107;51.304;6.866;2023-07-30T18:30:29;16.90;99.90
25128;DHT22;13107;51.304;6.866;2023-07-30T18:34:34;16.60;99.90
25128;DHT22;13107;51.304;6.866;2023-07-30T18:38:36;16.60;99.90
25128;DHT22;13107;51.304;6.866;2023-07-30T18:42:38;16.40;99.90
25128;DHT22;13107;51.304;6.866;2023-07-30T18:46:40;16.40;99.90
25128;DHT22;13107;51.304;6.866;2023-07-30T18:50:42;16.40;99.90
25128;DHT22;13107;51.304;6.866;2023-07-30T18:54:44;16.30;99.90
25128;DHT22;13107;51.304;6.866;2023-07-30T18:58:46;16.30;99.90
25128;DHT22;13107;51.304;6.866;2023-07-30T19:02:48;16.30;99.90
25128;DHT22;13107;51.304;6.866;2023-07-30T19:06:50;16.20;99.90
25128;DHT22;13107;51.304;6.866;2023-07-30T19:10:52;16.30;99.90
25128;DHT22;13107;51.304;6.866;2023-07-30T19:14:54;16.30;99.90
25128;DHT22;13107;51.304;6.866;2023-07-30T19:18:55;16.30;99.90
25128;DHT22;13107;51.304;6.866;2023-07-30T19:22:57;16.20;99.90
25128;DHT22;13107;51.304;6.866;2023-07-30T19:26:59;16.20;99.90
25128;DHT22;13107;51.304;6.866;2023-07-30T19:31:06;16.20;99.90
25128;DHT22;13107;51.304;6.866;2023-07-30T19:35:09;16.10;99.90
25128;DHT22;13107;51.304;6.866;2023-07-30T19:39:10;16.20;99.90
25128;DHT22;13107;51.304;6.866;2023-07-30T19:43:12;16.20;99.90
25128;DHT22;13107;51.304;6.866;2023-07-30T19:47:14;16.20;99.90
25128;DHT22;13107;51.304;6.866;2023-07-30T19:51:19;16.20;99.90
25128;DHT22;13107;51.304;6.866;2023-07-30T19:55:21;16.00;99.90
25128;DHT22;13107;51.304;6.866;2023-07-30T19:59:22;15.90;99.90
25128;DHT22;13107;51.304;6.866;2023-07-30T20:03:26;15.90;99.90
25128;DHT22;13107;51.304;6.866;2023-07-30T20:07:28;15.80;99.90
25128;DHT22;13107;51.304;6.866;2023-07-30T20:11:29;15.80;99.90
25128;DHT22;13107;51.304;6.866;2023-07-30T20:15:37;15.80;99.90
25128;DHT22;13107;51.304;6.866;2023-07-30T20:19:39;15.80;99.90
25128;DHT22;13107;51.304;6.866;2023-07-30T20:23:41;15.80;99.90
25128;DHT22;13107;51.304;6.866;2023-07-30T20:27:42;15.80;99.90
25128;DHT22;13107;51.304;6.866;2023-07-30T20:31:44;15.70;99.90
25128;DHT22;13107;51.304;6.866;2023-07-30T20:35:48;15.80;99.90
25128;DHT22;13107;51.304;6.866;2023-07-30T20:39:50;15.70;99.90
25128;DHT22;13107;51.304;6.866;2023-07-30T20:43:52;15.70;99.90
25128;DHT22;13107;51.304;6.866;2023-07-30T20:47:54;15.60;99.90
25128;DHT22;13107;51.304;6.866;2023-07-30T20:51:56;15.60;99.90
25128;DHT22;13107;51.304;6.866;2023-07-30T20:55:58;15.60;99.90
25128;DHT22;13107;51.304;6.866;2023-07-30T21:00:03;15.60;99.90
25128;DHT22;13107;51.304;6.866;2023-07-30T21:04:05;15.60;99.90
25128;DHT22;13107;51.304;6.866;2023-07-30T21:08:07;15.60;99.90
25128;DHT22;13107;51.304;6.866;2023-07-30T21:12:09;15.60;99.90
25128;DHT22;13107;51.304;6.866;2023-07-30T21:16:11;15.60;99.90
25128;DHT22;13107;51.304;6.866;2023-07-30T21:20:12;15.50;99.90
25128;DHT22;13107;51.304;6.866;2023-07-30T21:24:14;15.50;99.90
25128;DHT22;13107;51.304;6.866;2023-07-30T21:28:16;15.50;99.90
25128;DHT22;13107;51.304;6.866;2023-07-30T21:32:17;15.50;99.90
25128;DHT22;13107;51.304;6.866;2023-07-30T21:36:19;15.50;99.90
25128;DHT22;13107;51.304;6.866;2023-07-30T21:40:21;15.50;99.90
25128;DHT22;13107;51.304;6.866;2023-07-30T21:44:23;15.50;99.90
25128;DHT22;13107;51.304;6.866;2023-07-30T21:48:25;15.50;99.90
25128;DHT22;13107;51.304;6.866;2023-07-30T21:52:28;15.50;99.90
25128;DHT22;13107;51.304;6.866;2023-07-30T21:56:31;15.50;99.90
25128;DHT22;13107;51.304;6.866;2023-07-30T22:00:33;15.50;99.90
25128;DHT22;13107;51.304;6.866;2023-07-30T22:04:35;15.50;99.90
25128;DHT22;13107;51.304;6.866;2023-07-30T22:08:36;15.50;99.90
25128;DHT22;13107;51.304;6.866;2023-07-30T22:12:38;15.60;99.90
25128;DHT22;13107;51.304;6.866;2023-07-30T22:16:40;15.60;99.90
25128;DHT22;13107;51.304;6.866;2023-07-30T22:20:42;15.50;99.90
25128;DHT22;13107;51.304;6.866;2023-07-30T22:24:44;15.50;99.90
25128;DHT22;13107;51.304;6.866;2023-07-30T22:28:46;15.60;99.90
25128;DHT22;13107;51.304;6.866;2023-07-30T22:32:47;15.50;99.90
25128;DHT22;13107;51.304;6.866;2023-07-30T22:36:49;15.60;99.90
25128;DHT22;13107;51.304;6.866;2023-07-30T22:40:51;15.60;99.90
25128;DHT22;13107;51.304;6.866;2023-07-30T22:44:53;15.70;99.90
25128;DHT22;13107;51.304;6.866;2023-07-30T22:48:55;15.60;99.90
25128;DHT22;13107;51.304;6.866;2023-07-30T22:52:56;15.70;99.90
25128;DHT22;13107;51.304;6.866;2023-07-30T22:56:59;15.70;99.90
25128;DHT22;13107;51.304;6.866;2023-07-30T23:01:01;15.70;99.90
25128;DHT22;13107;51.304;6.866;2023-07-30T23:05:02;15.70;99.90
25128;DHT22;13107;51.304;6.866;2023-07-30T23:09:04;15.70;99.90
25128;DHT22;13107;51.304;6.866;2023-07-30T23:13:06;15.70;99.90
25128;DHT22;13107;51.304;6.866;2023-07-30T23:17:10;15.80;99.90
25128;DHT22;13107;51.304;6.866;2023-07-30T23:21:11;15.80;99.90
25128;DHT22;13107;51.304;6.866;2023-07-30T23:25:13;15.80;99.90
25128;DHT22;13107;51.304;6.866;2023-07-30T23:29:15;15.80;99.90
25128;DHT22;13107;51.304;6.866;2023-07-30T23:33:16;15.80;99.90
25128;DHT22;13107;51.304;6.866;2023-07-30T23:37:18;15.80;99.90
25128;DHT22;13107;51.304;6.866;2023-07-30T23:41:20;15.80;99.90
25128;DHT22;13107;51.304;6.866;2023-07-30T23:45:21;15.80;99.90
25128;DHT22;13107;51.304;6.866;2023-07-30T23:49:23;15.90;99.90
25128;DHT22;13107;51.304;6.866;2023-07-30T23:53:25;15.90;99.90
25128;DHT22;13107;51.304;6.866;2023-07-30T23:57:27;15.90;99.90
